• Join FlightAware (Why Join?)
  • Login
  • US Flag 
11:42AM EDT


 

Airport Tracker/Info


-or-


 

Live Flight TrackerFlight Track Log ✈ EJA982 ✈ 21-Jun-2013 ✈ KLAX - KSUN

Flight Track Log - Related Links

Times and Time Zones

All times are in EDT time to prevent confusion due to time zone crossing. See the EJA982 flight status page for this flight to view local times or setup timezone preferences in your user account.

Time Position Orientation Groundspeed Altitude Reporting Facility
EDT Latitude Longitude Course Direction KTS MPH feet Rate Location/Type
07:50PM 33.9333 -118.4333 247° West 188 216 1,900  Level Southern California TRACON
07:51PM 33.9061 -118.5100 247° West 229 264 5,000 2,700 Climbing Los Angeles Center
07:53PM 33.8631 -118.4633 138° Southeast 244 281 7,900 2,220 Climbing Los Angeles Center
07:54PM 33.9172 -118.4156 36° Northeast 263 303 9,700 1,740 Climbing Los Angeles Center
07:55PM 33.9817 -118.3492 40° Northeast 330 380 11,600 2,340 Climbing Los Angeles Center
07:56PM 34.0356 -118.2547 55° Northeast 340 391 14,600 1,920 Climbing Los Angeles Center
07:57PM 34.0925 -118.1542 56° Northeast 357 411 15,600 1,380 Climbing Los Angeles Center
07:58PM 34.1581 -118.0381 56° Northeast 409 471 17,500 1,740 Climbing Los Angeles Center
07:59PM 34.2367 -117.8975 56° Northeast 420 483 19,300 1,500 Climbing Los Angeles Center
08:00PM 34.3050 -117.7761 56° Northeast 433 498 20,600 1,200 Climbing Los Angeles Center
08:01PM 34.3753 -117.6500 56° Northeast 449 517 21,800 1,200 Climbing Los Angeles Center
08:02PM 34.4494 -117.5122 57° Northeast 461 531 23,200 1,260 Climbing Los Angeles Center
08:03PM 34.5217 -117.3819 56° Northeast 468 539 24,500 1,260 Climbing Los Angeles Center
08:04PM 34.5947 -117.2494 56° Northeast 473 544 25,900 1,140 Climbing Los Angeles Center
08:05PM 34.6744 -117.1192 53° Northeast 481 554 26,900 960 Climbing Los Angeles Center
08:06PM 34.7847 -116.9706 48° Northeast 494 568 27,900 900 Climbing Los Angeles Center
08:07PM 34.8772 -116.8439 48° Northeast 502 578 28,800 960 Climbing Los Angeles Center
08:08PM 34.9714 -116.7142 48° Northeast 512 589 29,900 1,020 Climbing Los Angeles Center
08:09PM 35.0686 -116.5811 48° Northeast 522 601 31,000 1,200 Climbing Los Angeles Center
08:10PM 35.1631 -116.4489 49° Northeast 523 602 32,500 1,740 Climbing Los Angeles Center
08:11PM 35.2794 -116.2892 48° Northeast 524 603 34,600 1,920 Climbing Los Angeles Center
08:12PM 35.3742 -116.1553 49° Northeast 522 601 36,500 1,740 Climbing Los Angeles Center
08:13PM 35.4697 -116.0200 49° Northeast 524 603 38,300 1,980 Climbing Los Angeles Center
08:14PM 35.5769 -115.8747 48° Northeast 516 594 40,700 1,260 Climbing Los Angeles Center
08:15PM 35.6703 -115.7425 49° Northeast 514 592 41,000 120 Climbing Los Angeles Center
08:16PM 35.7661 -115.6075 49° Northeast 524 603 41,000  Level Los Angeles Center
08:17PM 35.8628 -115.4697 49° Northeast 533 613 41,000  Level Los Angeles Center
08:18PM 35.9797 -115.3036 49° Northeast 539 620 41,000  Level Los Angeles Center
08:19PM 36.0747 -115.1658 50° Northeast 532 612 41,000  Level Los Angeles Center
08:20PM 36.1761 -115.0344 46° Northeast 533 613 41,000  Level Los Angeles Center
08:22PM 36.2803 -114.9044 45° Northeast 535 616 41,000  Level Los Angeles Center
08:23PM 36.3842 -114.7714 46° Northeast 539 620 41,000  Level Los Angeles Center
08:24PM 36.5094 -114.6072 46° Northeast 545 627 41,000  Level Los Angeles Center
08:25PM 36.6128 -114.4728 46° Northeast 542 624 41,000  Level Los Angeles Center
08:26PM 36.7153 -114.3392 46° Northeast 537 618 41,000  Level Los Angeles Center
08:27PM 36.8275 -114.2231 40° Northeast 527 606 41,000  Level Los Angeles Center
08:28PM 36.9528 -114.1303 31° Northeast 521 600 41,000  Level Los Angeles Center
08:29PM 37.0786 -114.0333 32° Northeast 528 608 41,000  Level Los Angeles Center
08:30PM 37.2292 -113.9161 32° Northeast 531 611 41,000  Level Los Angeles Center
08:31PM 37.3483 -113.8236 32° Northeast 531 611 41,000  Level Los Angeles Center
08:32PM 37.4747 -113.7236 32° Northeast 533 613 41,000  Level Los Angeles Center
08:33PM 37.5994 -113.6256 32° Northeast 528 608 41,000  Level Los Angeles Center
08:34PM 37.7239 -113.5272 32° Northeast 524 603 41,000  Level Los Angeles Center
08:35PM 37.8722 -113.4097 32° Northeast 521 600 41,000  Level Los Angeles Center
08:36PM 37.9953 -113.3106 32° Northeast 520 598 41,000  Level Los Angeles Center
08:37PM 38.1194 -113.2100 32° Northeast 524 603 41,000  Level Los Angeles Center
08:38PM 38.2422 -113.1111 32° Northeast 521 600 41,000  Level Los Angeles Center
08:39PM 38.3911 -112.9947 31° Northeast 521 600 41,000  Level Salt Lake Center
08:40PM 38.5217 -112.9236 23° Northeast 513 590 41,000  Level Salt Lake Center
08:41PM 38.6519 -112.8531 23° Northeast 509 586 41,000  Level Salt Lake Center
08:42PM 38.7828 -112.7822 23° Northeast 510 587 41,000  Level Salt Lake Center
08:43PM 38.9139 -112.7117 23° Northeast 511 588 41,000  Level Salt Lake Center
08:44PM 39.0706 -112.6250 23° Northeast 510 587 41,000  Level Salt Lake Center
08:45PM 39.2019 -112.5531 23° Northeast 512 589 41,000  Level Salt Lake Center
08:46PM 39.3392 -112.4897 20° North 510 587 41,000  Level Salt Lake Center
08:47PM 39.4675 -112.5447 342° North 480 552 41,000  Level Salt Lake Center
08:49PM 39.5864 -112.6181 335° Northwest 471 542 41,000  Level Salt Lake Center
08:50PM 39.6994 -112.6889 334° Northwest 469 540 41,000  Level Salt Lake Center
08:51PM 39.8244 -112.7656 335° Northwest 477 549 41,000  Level Salt Lake Center
08:52PM 39.9450 -112.8417 334° Northwest 479 551 41,000  Level Salt Lake Center
08:53PM 40.0661 -112.9167 335° Northwest 482 555 41,000  Level Salt Lake Center
08:54PM 40.2125 -113.0033 336° Northwest 479 551 41,000  Level Salt Lake Center
08:55PM 40.3347 -113.0614 340° North 469 540 41,000  Level Salt Lake Center
08:56PM 40.4589 -113.1222 340° North 474 545 41,000  Level Salt Lake Center
08:57PM 40.5833 -113.1853 339° North 476 548 41,000  Level Salt Lake Center
08:58PM 40.7083 -113.2481 339° North 479 551 41,000  Level Salt Lake Center
08:59PM 40.8319 -113.3100 339° North 476 548 41,000  Level Salt Lake Center
09:00PM 40.9561 -113.3739 339° North 477 549 41,000  Level Salt Lake Center
09:01PM 41.0811 -113.4406 338° Northwest 480 552 41,000  Level Salt Lake Center
09:02PM 41.2103 -113.5019 340° North 487 560 41,000  Level Salt Lake Center
09:03PM 41.3736 -113.5575 346° North 499 574 41,000  Level Salt Lake Center
09:04PM 41.5097 -113.6028 346° North 503 579 41,000  Level Salt Lake Center
09:05PM 41.6453 -113.6494 346° North 502 578 41,000  Level Salt Lake Center
09:06PM 41.7825 -113.6953 346° North 505 581 41,000 -300 Level Salt Lake Center
09:07PM 41.9133 -113.7386 346° North 492 566 40,400 -1,860 Descending Salt Lake Center
09:08PM 42.0439 -113.7853 345° North 485 558 37,300 -2,460 Descending Salt Lake Center
09:09PM 42.1778 -113.8331 345° North 504 580 35,400 -2,220 Descending Salt Lake Center
09:10PM 42.3103 -113.8772 346° North 493 567 32,900 -2,820 Descending Salt Lake Center
09:11PM 42.4378 -113.9258 344° North 475 547 29,700 -3,300 Descending Salt Lake Center
09:12PM 42.5803 -113.9753 346° North 438 504 26,200 -3,120 Descending Salt Lake Center
09:13PM 42.6925 -114.0147 346° North 419 482 23,400 -2,640 Descending Salt Lake Center
09:14PM 42.7981 -114.0528 345° North 396 456 20,800 -2,580 Descending Salt Lake Center
09:15PM 42.9014 -114.0897 345° North 374 430 18,200 -2,520 Descending Salt Lake Center
09:16PM 43.0033 -114.1269 345° North 361 415 15,700 -2,340 Descending Salt Lake Center
09:17PM 43.0900 -114.1575 346° North 342 394 13,500 -2,160 Descending Salt Lake Center
09:18PM 43.1828 -114.1914 345° North 332 382 11,300 -1,320 Descending Salt Lake Center
09:19PM 43.2628 -114.2178 346° North 295 339 10,900 -360 Descending Salt Lake Center
09:20PM 43.3278 -114.2189 359° North 266 306 10,600 -300 Descending Salt Lake Center
09:22PM 43.4787 -114.2833 North  Level FlightAware Approximate
09:29PM 43.5000 -114.2833 North  Level FlightAware Approximate
09:30PM 43.5038 -114.2956 North  Level Estimated